Memphis, MO (63555)

4:27 PM CST on February 08, 2016 (GMT -0600)
APRSWXNET | | Change Station
CLOSE
Current Station
Personal Weather Station
Location: Lancaster, MO
Elevation: 931 ft
Nearby Weather Stations

Elev 931 ft 40.52 °N, 92.52 °W | Updated 20 minutes ago

Snow
Snow
20 °F
Feels Like 13 °F
N
5
Wind Variable Wind from WNW
Gusts 0.0 mph

Today
High -- | Low -- °F
--% Chance of Precip.
Yesterday
High -- | Low -- °F
Precip. -- in
Pressure 30.03 in
Visibility 9.0 miles
Clouds Overcast 3600 ft
Windchill 13 °F
Dew Point 13 °F
Humidity 73%
Rainfall in
Snow Depth Not available.
7:11 AM 5:34 PM
New Moon, 0% visible
METAR KIRK 082155Z AUTO 31017G23KT 9SM -SN OVC036 M06/M13 A2998 RMK AO2 PK WND 31031/2125 SNB14 SLP168 P0000 T10561128 $
Pressure 30.03 in
Visibility 9.0 miles
Clouds Overcast 3600 ft
Windchill 13 °F
Dew Point 13 °F
Humidity 73%
Rainfall in
Snow Depth Not available.
7:11 AM 5:34 PM
New Moon, 0% visible
METAR KIRK 082155Z AUTO 31017G23KT 9SM -SN OVC036 M06/M13 A2998 RMK AO2 PK WND 31031/2125 SNB14 SLP168 P0000 T10561128 $

10-Day Weather Forecast

Almanac

Astronomy

Feb. 08, 2016 Rise Set
Actual Time
Civil Twilight
Nautical Twilight
Astronomical Twilight
Moon
Length of Visible Light
Length of Day
Tomorrow will be .
, % of the Moon is Illuminated

Today's Extremes

State Highs State Lows

Community

WunderPhotos

Upload Photos

1,891,518 photos uploaded!

WunderBlog® & News

Nearby

Air Quality

  Air Quality AQ Index Pollutant
Not available.

Snow Depth

Station Depth Elevation

Earthquake Activity

City Distance Mag. Time & Date
Minimum magnitude displayed is 2.5.

Coastal Water Temperatures

Place Temperature

Stations

Nearby Weather Stations

Station Location Temp. Windchill Dew Point Humidity Wind Precip. Elev Updated Type
                   

Watches & Warnings

There are currently no watches in effect.